sensor_id;sensor_type;location;lat;lon;timestamp;P1;durP1;ratioP1;P2;durP2;ratioP2
17631;SDS011;8934;51.194;17.150;2023-02-01T00:02:42;4.50;;;0.90;;
17631;SDS011;8934;51.194;17.150;2023-02-01T00:05:30;3.22;;;0.60;;
17631;SDS011;8934;51.194;17.150;2023-02-01T00:08:17;2.80;;;0.55;;
17631;SDS011;8934;51.194;17.150;2023-02-01T00:11:05;4.03;;;0.57;;
17631;SDS011;8934;51.194;17.150;2023-02-01T00:13:54;3.85;;;0.90;;
17631;SDS011;8934;51.194;17.150;2023-02-01T00:16:41;4.47;;;0.73;;
17631;SDS011;8934;51.194;17.150;2023-02-01T00:19:30;5.55;;;1.13;;
17631;SDS011;8934;51.194;17.150;2023-02-01T00:22:17;5.60;;;0.98;;
17631;SDS011;8934;51.194;17.150;2023-02-01T00:25:05;2.80;;;0.88;;
17631;SDS011;8934;51.194;17.150;2023-02-01T00:27:53;2.17;;;0.80;;
17631;SDS011;8934;51.194;17.150;2023-02-01T00:30:42;2.55;;;0.68;;
17631;SDS011;8934;51.194;17.150;2023-02-01T00:33:30;3.83;;;1.17;;
17631;SDS011;8934;51.194;17.150;2023-02-01T00:36:20;5.07;;;0.93;;
17631;SDS011;8934;51.194;17.150;2023-02-01T00:39:08;2.97;;;0.60;;
17631;SDS011;8934;51.194;17.150;2023-02-01T00:41:56;7.65;;;0.93;;
17631;SDS011;8934;51.194;17.150;2023-02-01T00:44:43;3.85;;;1.02;;
17631;SDS011;8934;51.194;17.150;2023-02-01T00:47:31;2.33;;;0.70;;
17631;SDS011;8934;51.194;17.150;2023-02-01T00:50:19;2.55;;;1.20;;
17631;SDS011;8934;51.194;17.150;2023-02-01T00:53:09;7.10;;;1.38;;
17631;SDS011;8934;51.194;17.150;2023-02-01T00:55:57;5.60;;;1.52;;
17631;SDS011;8934;51.194;17.150;2023-02-01T00:58:45;5.15;;;1.02;;
17631;SDS011;8934;51.194;17.150;2023-02-01T01:01:33;6.57;;;0.82;;
17631;SDS011;8934;51.194;17.150;2023-02-01T01:04:20;6.82;;;1.42;;
17631;SDS011;8934;51.194;17.150;2023-02-01T01:07:08;2.53;;;1.15;;
17631;SDS011;8934;51.194;17.150;2023-02-01T01:09:57;5.95;;;1.20;;
17631;SDS011;8934;51.194;17.150;2023-02-01T01:12:45;3.47;;;0.77;;
17631;SDS011;8934;51.194;17.150;2023-02-01T01:15:35;6.45;;;0.93;;
17631;SDS011;8934;51.194;17.150;2023-02-01T01:18:24;5.35;;;2.13;;
17631;SDS011;8934;51.194;17.150;2023-02-01T01:21:13;5.25;;;1.23;;
17631;SDS011;8934;51.194;17.150;2023-02-01T01:24:01;6.05;;;1.70;;
17631;SDS011;8934;51.194;17.150;2023-02-01T01:26:51;5.65;;;1.05;;
17631;SDS011;8934;51.194;17.150;2023-02-01T01:29:39;7.85;;;1.42;;
17631;SDS011;8934;51.194;17.150;2023-02-01T01:32:27;5.32;;;1.80;;
17631;SDS011;8934;51.194;17.150;2023-02-01T01:35:15;10.32;;;1.63;;
17631;SDS011;8934;51.194;17.150;2023-02-01T01:38:03;6.97;;;2.03;;
17631;SDS011;8934;51.194;17.150;2023-02-01T01:40:51;4.50;;;1.95;;
17631;SDS011;8934;51.194;17.150;2023-02-01T01:43:55;3.08;;;1.10;;
17631;SDS011;8934;51.194;17.150;2023-02-01T01:46:45;1.17;;;0.93;;
17631;SDS011;8934;51.194;17.150;2023-02-01T01:49:33;3.40;;;0.70;;
17631;SDS011;8934;51.194;17.150;2023-02-01T01:52:21;3.85;;;0.90;;
17631;SDS011;8934;51.194;17.150;2023-02-01T01:55:08;3.42;;;0.85;;
17631;SDS011;8934;51.194;17.150;2023-02-01T01:57:57;7.70;;;0.93;;
17631;SDS011;8934;51.194;17.150;2023-02-01T02:00:50;2.80;;;0.60;;
17631;SDS011;8934;51.194;17.150;2023-02-01T02:03:38;1.92;;;0.80;;
17631;SDS011;8934;51.194;17.150;2023-02-01T02:06:34;2.70;;;0.85;;
17631;SDS011;8934;51.194;17.150;2023-02-01T02:09:27;1.77;;;0.90;;
17631;SDS011;8934;51.194;17.150;2023-02-01T02:12:15;3.42;;;0.80;;
17631;SDS011;8934;51.194;17.150;2023-02-01T02:15:03;2.08;;;0.73;;
17631;SDS011;8934;51.194;17.150;2023-02-01T02:17:54;4.10;;;1.42;;
17631;SDS011;8934;51.194;17.150;2023-02-01T02:20:51;3.85;;;1.00;;
17631;SDS011;8934;51.194;17.150;2023-02-01T02:24:10;2.30;;;0.82;;
17631;SDS011;8934;51.194;17.150;2023-02-01T02:27:21;4.13;;;0.90;;
17631;SDS011;8934;51.194;17.150;2023-02-01T02:30:23;4.50;;;1.00;;
17631;SDS011;8934;51.194;17.150;2023-02-01T02:36:42;6.30;;;1.25;;
17631;SDS011;8934;51.194;17.150;2023-02-01T02:39:40;7.82;;;1.50;;
17631;SDS011;8934;51.194;17.150;2023-02-01T02:42:38;5.40;;;1.40;;
17631;SDS011;8934;51.194;17.150;2023-02-01T02:45:47;9.30;;;2.05;;
17631;SDS011;8934;51.194;17.150;2023-02-01T02:52:24;11.57;;;2.03;;
17631;SDS011;8934;51.194;17.150;2023-02-01T02:58:19;6.70;;;2.20;;
17631;SDS011;8934;51.194;17.150;2023-02-01T03:01:26;5.65;;;2.13;;
17631;SDS011;8934;51.194;17.150;2023-02-01T03:04:32;4.95;;;3.13;;
17631;SDS011;8934;51.194;17.150;2023-02-01T03:10:48;11.95;;;3.72;;
17631;SDS011;8934;51.194;17.150;2023-02-01T03:13:43;8.15;;;4.28;;
17631;SDS011;8934;51.194;17.150;2023-02-01T03:16:33;8.77;;;2.60;;
17631;SDS011;8934;51.194;17.150;2023-02-01T03:19:28;7.10;;;1.70;;
17631;SDS011;8934;51.194;17.150;2023-02-01T03:22:20;14.65;;;2.40;;
17631;SDS011;8934;51.194;17.150;2023-02-01T03:25:12;7.88;;;1.70;;
17631;SDS011;8934;51.194;17.150;2023-02-01T03:30:56;14.18;;;2.28;;
17631;SDS011;8934;51.194;17.150;2023-02-01T03:33:44;8.02;;;2.25;;
17631;SDS011;8934;51.194;17.150;2023-02-01T03:36:34;8.88;;;2.45;;
17631;SDS011;8934;51.194;17.150;2023-02-01T03:39:27;11.82;;;2.15;;
17631;SDS011;8934;51.194;17.150;2023-02-01T03:42:21;7.72;;;1.95;;
17631;SDS011;8934;51.194;17.150;2023-02-01T03:45:16;8.80;;;1.90;;
17631;SDS011;8934;51.194;17.150;2023-02-01T03:48:09;4.88;;;1.88;;
17631;SDS011;8934;51.194;17.150;2023-02-01T03:51:00;7.80;;;2.55;;
17631;SDS011;8934;51.194;17.150;2023-02-01T03:53:51;8.23;;;2.08;;
17631;SDS011;8934;51.194;17.150;2023-02-01T03:56:41;12.68;;;3.15;;
17631;SDS011;8934;51.194;17.150;2023-02-01T03:59:32;12.82;;;3.20;;
17631;SDS011;8934;51.194;17.150;2023-02-01T04:02:20;10.32;;;2.63;;
17631;SDS011;8934;51.194;17.150;2023-02-01T04:05:07;13.07;;;2.60;;
17631;SDS011;8934;51.194;17.150;2023-02-01T04:07:58;8.25;;;2.05;;
17631;SDS011;8934;51.194;17.150;2023-02-01T04:10:46;12.43;;;2.72;;
17631;SDS011;8934;51.194;17.150;2023-02-01T04:13:34;9.43;;;3.55;;
17631;SDS011;8934;51.194;17.150;2023-02-01T04:16:23;8.25;;;2.00;;
17631;SDS011;8934;51.194;17.150;2023-02-01T04:19:10;8.57;;;2.10;;
17631;SDS011;8934;51.194;17.150;2023-02-01T04:21:57;9.88;;;2.50;;
17631;SDS011;8934;51.194;17.150;2023-02-01T04:24:45;12.82;;;2.28;;
17631;SDS011;8934;51.194;17.150;2023-02-01T04:27:33;9.40;;;2.22;;
17631;SDS011;8934;51.194;17.150;2023-02-01T04:30:21;10.00;;;4.18;;
17631;SDS011;8934;51.194;17.150;2023-02-01T04:33:11;7.78;;;2.42;;
17631;SDS011;8934;51.194;17.150;2023-02-01T04:35:59;5.28;;;2.65;;
17631;SDS011;8934;51.194;17.150;2023-02-01T04:38:47;6.70;;;1.92;;
17631;SDS011;8934;51.194;17.150;2023-02-01T04:41:35;7.68;;;2.15;;
17631;SDS011;8934;51.194;17.150;2023-02-01T04:44:23;7.18;;;2.08;;
17631;SDS011;8934;51.194;17.150;2023-02-01T04:47:10;7.85;;;2.97;;
17631;SDS011;8934;51.194;17.150;2023-02-01T04:49:59;11.43;;;2.58;;
17631;SDS011;8934;51.194;17.150;2023-02-01T04:52:47;10.30;;;1.85;;
17631;SDS011;8934;51.194;17.150;2023-02-01T04:55:34;8.70;;;3.42;;
17631;SDS011;8934;51.194;17.150;2023-02-01T04:58:22;8.20;;;1.88;;
17631;SDS011;8934;51.194;17.150;2023-02-01T05:01:10;9.90;;;2.60;;
17631;SDS011;8934;51.194;17.150;2023-02-01T05:03:58;9.18;;;2.83;;
17631;SDS011;8934;51.194;17.150;2023-02-01T05:06:46;8.25;;;2.45;;
17631;SDS011;8934;51.194;17.150;2023-02-01T05:09:34;8.25;;;2.63;;
17631;SDS011;8934;51.194;17.150;2023-02-01T05:12:21;10.90;;;2.10;;
17631;SDS011;8934;51.194;17.150;2023-02-01T05:15:26;6.07;;;2.10;;
17631;SDS011;8934;51.194;17.150;2023-02-01T05:18:14;7.60;;;2.58;;
17631;SDS011;8934;51.194;17.150;2023-02-01T05:21:02;11.43;;;2.50;;
17631;SDS011;8934;51.194;17.150;2023-02-01T05:23:51;7.05;;;2.63;;
17631;SDS011;8934;51.194;17.150;2023-02-01T05:26:58;6.82;;;2.22;;
17631;SDS011;8934;51.194;17.150;2023-02-01T05:29:46;11.63;;;3.15;;
17631;SDS011;8934;51.194;17.150;2023-02-01T05:32:33;13.10;;;2.22;;
17631;SDS011;8934;51.194;17.150;2023-02-01T05:35:21;9.90;;;4.03;;
17631;SDS011;8934;51.194;17.150;2023-02-01T05:38:08;12.32;;;3.28;;
17631;SDS011;8934;51.194;17.150;2023-02-01T05:40:58;7.22;;;2.28;;
17631;SDS011;8934;51.194;17.150;2023-02-01T05:43:45;9.57;;;3.05;;
17631;SDS011;8934;51.194;17.150;2023-02-01T05:46:33;8.48;;;1.92;;
17631;SDS011;8934;51.194;17.150;2023-02-01T05:49:21;9.30;;;2.08;;
17631;SDS011;8934;51.194;17.150;2023-02-01T05:52:09;9.43;;;2.20;;
17631;SDS011;8934;51.194;17.150;2023-02-01T05:54:56;9.00;;;2.50;;
17631;SDS011;8934;51.194;17.150;2023-02-01T05:57:45;8.93;;;2.28;;
17631;SDS011;8934;51.194;17.150;2023-02-01T06:00:33;11.95;;;2.67;;
17631;SDS011;8934;51.194;17.150;2023-02-01T06:03:21;12.70;;;2.35;;
17631;SDS011;8934;51.194;17.150;2023-02-01T06:06:09;11.10;;;2.35;;
17631;SDS011;8934;51.194;17.150;2023-02-01T06:08:56;14.18;;;3.30;;
17631;SDS011;8934;51.194;17.150;2023-02-01T06:11:44;9.85;;;3.38;;
17631;SDS011;8934;51.194;17.150;2023-02-01T06:14:33;6.32;;;2.38;;
17631;SDS011;8934;51.194;17.150;2023-02-01T06:17:22;12.73;;;2.88;;
17631;SDS011;8934;51.194;17.150;2023-02-01T06:20:10;6.55;;;2.22;;
17631;SDS011;8934;51.194;17.150;2023-02-01T06:22:59;11.20;;;3.33;;
17631;SDS011;8934;51.194;17.150;2023-02-01T06:25:47;10.00;;;2.88;;
17631;SDS011;8934;51.194;17.150;2023-02-01T06:28:34;11.18;;;2.40;;
17631;SDS011;8934;51.194;17.150;2023-02-01T06:31:24;7.43;;;2.05;;
17631;SDS011;8934;51.194;17.150;2023-02-01T06:34:12;10.55;;;2.85;;
17631;SDS011;8934;51.194;17.150;2023-02-01T06:36:59;6.03;;;2.30;;
17631;SDS011;8934;51.194;17.150;2023-02-01T06:39:47;13.95;;;2.70;;
17631;SDS011;8934;51.194;17.150;2023-02-01T06:42:34;10.18;;;2.40;;
17631;SDS011;8934;51.194;17.150;2023-02-01T06:45:22;8.00;;;2.63;;
17631;SDS011;8934;51.194;17.150;2023-02-01T06:48:10;8.00;;;2.40;;
17631;SDS011;8934;51.194;17.150;2023-02-01T06:50:58;6.60;;;2.08;;
17631;SDS011;8934;51.194;17.150;2023-02-01T06:53:45;11.32;;;2.63;;
17631;SDS011;8934;51.194;17.150;2023-02-01T06:56:33;8.23;;;2.40;;
17631;SDS011;8934;51.194;17.150;2023-02-01T06:59:21;6.70;;;2.08;;
17631;SDS011;8934;51.194;17.150;2023-02-01T07:02:09;7.63;;;2.30;;
17631;SDS011;8934;51.194;17.150;2023-02-01T07:04:58;6.95;;;2.38;;
17631;SDS011;8934;51.194;17.150;2023-02-01T07:07:46;9.25;;;2.05;;
17631;SDS011;8934;51.194;17.150;2023-02-01T07:10:34;8.73;;;2.88;;
17631;SDS011;8934;51.194;17.150;2023-02-01T07:13:22;7.65;;;3.25;;
17631;SDS011;8934;51.194;17.150;2023-02-01T07:16:10;9.73;;;2.78;;
17631;SDS011;8934;51.194;17.150;2023-02-01T07:18:59;7.38;;;2.40;;
17631;SDS011;8934;51.194;17.150;2023-02-01T07:21:48;9.05;;;2.58;;
17631;SDS011;8934;51.194;17.150;2023-02-01T07:24:36;10.68;;;3.08;;
17631;SDS011;8934;51.194;17.150;2023-02-01T07:27:24;8.25;;;2.80;;
17631;SDS011;8934;51.194;17.150;2023-02-01T07:30:11;12.40;;;2.58;;
17631;SDS011;8934;51.194;17.150;2023-02-01T07:32:59;8.98;;;2.75;;
17631;SDS011;8934;51.194;17.150;2023-02-01T07:35:48;5.70;;;2.15;;
17631;SDS011;8934;51.194;17.150;2023-02-01T07:38:37;7.43;;;2.00;;
17631;SDS011;8934;51.194;17.150;2023-02-01T07:41:25;7.75;;;2.30;;
17631;SDS011;8934;51.194;17.150;2023-02-01T07:44:12;4.50;;;1.85;;
17631;SDS011;8934;51.194;17.150;2023-02-01T07:47:00;14.30;;;3.10;;
17631;SDS011;8934;51.194;17.150;2023-02-01T07:49:48;6.72;;;2.72;;
17631;SDS011;8934;51.194;17.150;2023-02-01T07:52:35;9.73;;;2.40;;
17631;SDS011;8934;51.194;17.150;2023-02-01T07:55:24;9.35;;;2.80;;
17631;SDS011;8934;51.194;17.150;2023-02-01T07:58:12;7.82;;;2.45;;
17631;SDS011;8934;51.194;17.150;2023-02-01T08:01:00;10.65;;;2.40;;
17631;SDS011;8934;51.194;17.150;2023-02-01T08:04:05;10.38;;;2.85;;
17631;SDS011;8934;51.194;17.150;2023-02-01T08:06:53;17.83;;;3.05;;
17631;SDS011;8934;51.194;17.150;2023-02-01T08:09:40;10.73;;;2.30;;
17631;SDS011;8934;51.194;17.150;2023-02-01T08:12:29;14.27;;;3.25;;
17631;SDS011;8934;51.194;17.150;2023-02-01T08:15:17;9.82;;;2.15;;
17631;SDS011;8934;51.194;17.150;2023-02-01T08:18:04;12.30;;;2.40;;
17631;SDS011;8934;51.194;17.150;2023-02-01T08:20:52;8.23;;;2.17;;
17631;SDS011;8934;51.194;17.150;2023-02-01T08:23:40;6.88;;;2.47;;
17631;SDS011;8934;51.194;17.150;2023-02-01T08:26:28;10.80;;;2.65;;
17631;SDS011;8934;51.194;17.150;2023-02-01T08:29:17;7.72;;;2.78;;
17631;SDS011;8934;51.194;17.150;2023-02-01T08:32:05;10.73;;;2.63;;
17631;SDS011;8934;51.194;17.150;2023-02-01T08:34:54;7.93;;;2.65;;
17631;SDS011;8934;51.194;17.150;2023-02-01T08:37:41;9.35;;;3.15;;
17631;SDS011;8934;51.194;17.150;2023-02-01T08:40:29;16.30;;;3.38;;
17631;SDS011;8934;51.194;17.150;2023-02-01T08:43:18;11.52;;;3.10;;
17631;SDS011;8934;51.194;17.150;2023-02-01T08:46:07;10.98;;;3.00;;
17631;SDS011;8934;51.194;17.150;2023-02-01T08:48:55;8.85;;;2.70;;
17631;SDS011;8934;51.194;17.150;2023-02-01T08:51:43;8.02;;;2.75;;
17631;SDS011;8934;51.194;17.150;2023-02-01T08:54:31;11.43;;;2.50;;
17631;SDS011;8934;51.194;17.150;2023-02-01T08:57:18;8.43;;;2.33;;
17631;SDS011;8934;51.194;17.150;2023-02-01T09:00:06;7.78;;;2.88;;
17631;SDS011;8934;51.194;17.150;2023-02-01T09:02:58;8.63;;;2.47;;
17631;SDS011;8934;51.194;17.150;2023-02-01T09:05:46;19.17;;;7.35;;
17631;SDS011;8934;51.194;17.150;2023-02-01T09:08:35;18.88;;;6.60;;
17631;SDS011;8934;51.194;17.150;2023-02-01T09:11:24;8.13;;;3.05;;
17631;SDS011;8934;51.194;17.150;2023-02-01T09:14:12;8.07;;;2.25;;
17631;SDS011;8934;51.194;17.150;2023-02-01T09:16:59;8.65;;;3.22;;
17631;SDS011;8934;51.194;17.150;2023-02-01T09:19:48;9.02;;;2.42;;
17631;SDS011;8934;51.194;17.150;2023-02-01T09:22:36;10.27;;;3.20;;
17631;SDS011;8934;51.194;17.150;2023-02-01T09:25:24;13.80;;;2.90;;
17631;SDS011;8934;51.194;17.150;2023-02-01T09:28:11;9.52;;;3.00;;
17631;SDS011;8934;51.194;17.150;2023-02-01T09:30:59;8.80;;;2.60;;
17631;SDS011;8934;51.194;17.150;2023-02-01T09:33:48;12.50;;;3.33;;
17631;SDS011;8934;51.194;17.150;2023-02-01T09:36:37;7.95;;;2.97;;
17631;SDS011;8934;51.194;17.150;2023-02-01T09:39:24;9.55;;;3.30;;
17631;SDS011;8934;51.194;17.150;2023-02-01T09:42:17;10.57;;;2.70;;
17631;SDS011;8934;51.194;17.150;2023-02-01T09:45:18;13.35;;;2.85;;
17631;SDS011;8934;51.194;17.150;2023-02-01T09:48:11;6.90;;;3.30;;
17631;SDS011;8934;51.194;17.150;2023-02-01T09:51:04;8.55;;;2.97;;
17631;SDS011;8934;51.194;17.150;2023-02-01T09:53:59;9.18;;;2.78;;
17631;SDS011;8934;51.194;17.150;2023-02-01T09:56:51;7.82;;;2.50;;
17631;SDS011;8934;51.194;17.150;2023-02-01T09:59:43;7.65;;;2.40;;
17631;SDS011;8934;51.194;17.150;2023-02-01T10:02:36;4.50;;;2.60;;
17631;SDS011;8934;51.194;17.150;2023-02-01T10:05:30;7.35;;;2.53;;
17631;SDS011;8934;51.194;17.150;2023-02-01T10:08:38;9.40;;;2.60;;
17631;SDS011;8934;51.194;17.150;2023-02-01T10:11:42;8.43;;;2.38;;
17631;SDS011;8934;51.194;17.150;2023-02-01T10:14:46;8.55;;;2.25;;
17631;SDS011;8934;51.194;17.150;2023-02-01T10:17:46;7.28;;;1.75;;
17631;SDS011;8934;51.194;17.150;2023-02-01T10:20:47;6.82;;;2.50;;
17631;SDS011;8934;51.194;17.150;2023-02-01T10:23:44;7.63;;;2.80;;
17631;SDS011;8934;51.194;17.150;2023-02-01T10:27:06;4.78;;;2.25;;
17631;SDS011;8934;51.194;17.150;2023-02-01T10:30:03;10.20;;;2.97;;
17631;SDS011;8934;51.194;17.150;2023-02-01T10:33:00;8.80;;;2.53;;
17631;SDS011;8934;51.194;17.150;2023-02-01T10:36:01;7.70;;;2.78;;
17631;SDS011;8934;51.194;17.150;2023-02-01T10:38:57;4.78;;;2.53;;
17631;SDS011;8934;51.194;17.150;2023-02-01T10:41:46;5.07;;;2.30;;
17631;SDS011;8934;51.194;17.150;2023-02-01T10:44:36;10.23;;;2.88;;
17631;SDS011;8934;51.194;17.150;2023-02-01T10:47:31;4.78;;;2.30;;
17631;SDS011;8934;51.194;17.150;2023-02-01T10:50:22;5.47;;;2.28;;
17631;SDS011;8934;51.194;17.150;2023-02-01T10:53:18;6.20;;;2.15;;
17631;SDS011;8934;51.194;17.150;2023-02-01T10:56:11;5.55;;;2.50;;
17631;SDS011;8934;51.194;17.150;2023-02-01T10:59:00;10.88;;;3.20;;
17631;SDS011;8934;51.194;17.150;2023-02-01T11:01:51;9.98;;;2.80;;
17631;SDS011;8934;51.194;17.150;2023-02-01T11:04:45;6.88;;;2.40;;
17631;SDS011;8934;51.194;17.150;2023-02-01T11:07:33;6.38;;;2.78;;
17631;SDS011;8934;51.194;17.150;2023-02-01T11:10:36;6.40;;;2.42;;
17631;SDS011;8934;51.194;17.150;2023-02-01T11:13:30;9.50;;;2.67;;
17631;SDS011;8934;51.194;17.150;2023-02-01T11:16:21;8.43;;;2.75;;
17631;SDS011;8934;51.194;17.150;2023-02-01T11:19:18;5.50;;;2.67;;
17631;SDS011;8934;51.194;17.150;2023-02-01T11:22:06;10.18;;;3.10;;
17631;SDS011;8934;51.194;17.150;2023-02-01T11:24:53;8.93;;;2.90;;
17631;SDS011;8934;51.194;17.150;2023-02-01T11:27:42;10.25;;;3.00;;
17631;SDS011;8934;51.194;17.150;2023-02-01T11:30:40;9.23;;;3.03;;
17631;SDS011;8934;51.194;17.150;2023-02-01T11:33:31;7.97;;;3.55;;
17631;SDS011;8934;51.194;17.150;2023-02-01T11:36:24;8.25;;;2.88;;
17631;SDS011;8934;51.194;17.150;2023-02-01T11:39:19;8.90;;;2.75;;
17631;SDS011;8934;51.194;17.150;2023-02-01T11:45:19;6.90;;;2.90;;
17631;SDS011;8934;51.194;17.150;2023-02-01T11:48:14;7.07;;;2.92;;
17631;SDS011;8934;51.194;17.150;2023-02-01T11:51:17;5.43;;;2.70;;
17631;SDS011;8934;51.194;17.150;2023-02-01T11:54:29;7.05;;;2.20;;
17631;SDS011;8934;51.194;17.150;2023-02-01T11:57:32;4.47;;;2.67;;
17631;SDS011;8934;51.194;17.150;2023-02-01T12:00:32;9.82;;;3.53;;
17631;SDS011;8934;51.194;17.150;2023-02-01T12:03:49;5.38;;;2.10;;
17631;SDS011;8934;51.194;17.150;2023-02-01T12:06:50;5.43;;;2.30;;
17631;SDS011;8934;51.194;17.150;2023-02-01T12:09:44;5.82;;;2.20;;
17631;SDS011;8934;51.194;17.150;2023-02-01T12:12:53;5.10;;;2.20;;
17631;SDS011;8934;51.194;17.150;2023-02-01T12:15:53;3.97;;;2.30;;
17631;SDS011;8934;51.194;17.150;2023-02-01T12:22:08;7.30;;;2.22;;
17631;SDS011;8934;51.194;17.150;2023-02-01T12:25:18;9.55;;;4.05;;
17631;SDS011;8934;51.194;17.150;2023-02-01T12:28:21;6.15;;;2.85;;
17631;SDS011;8934;51.194;17.150;2023-02-01T12:31:24;4.93;;;2.80;;
17631;SDS011;8934;51.194;17.150;2023-02-01T12:34:26;8.75;;;3.25;;
17631;SDS011;8934;51.194;17.150;2023-02-01T12:37:45;6.47;;;3.10;;
17631;SDS011;8934;51.194;17.150;2023-02-01T12:40:45;3.25;;;2.25;;
17631;SDS011;8934;51.194;17.150;2023-02-01T12:43:44;3.20;;;2.22;;
17631;SDS011;8934;51.194;17.150;2023-02-01T12:46:35;3.25;;;2.08;;
17631;SDS011;8934;51.194;17.150;2023-02-01T12:49:30;4.82;;;2.30;;
17631;SDS011;8934;51.194;17.150;2023-02-01T12:52:29;6.15;;;2.55;;
17631;SDS011;8934;51.194;17.150;2023-02-01T12:55:24;9.18;;;3.30;;
17631;SDS011;8934;51.194;17.150;2023-02-01T13:01:09;3.55;;;2.08;;
17631;SDS011;8934;51.194;17.150;2023-02-01T13:04:03;5.63;;;2.22;;
17631;SDS011;8934;51.194;17.150;2023-02-01T13:07:00;5.30;;;2.42;;
17631;SDS011;8934;51.194;17.150;2023-02-01T13:09:55;3.10;;;2.03;;
17631;SDS011;8934;51.194;17.150;2023-02-01T13:12:50;4.85;;;2.38;;
17631;SDS011;8934;51.194;17.150;2023-02-01T13:15:42;5.20;;;2.97;;
17631;SDS011;8934;51.194;17.150;2023-02-01T13:18:34;4.45;;;2.05;;
17631;SDS011;8934;51.194;17.150;2023-02-01T13:21:24;6.78;;;2.25;;
17631;SDS011;8934;51.194;17.150;2023-02-01T13:24:19;5.35;;;2.25;;
17631;SDS011;8934;51.194;17.150;2023-02-01T13:27:14;4.28;;;2.20;;
17631;SDS011;8934;51.194;17.150;2023-02-01T13:30:05;5.30;;;2.53;;
17631;SDS011;8934;51.194;17.150;2023-02-01T13:33:06;3.47;;;2.25;;
17631;SDS011;8934;51.194;17.150;2023-02-01T13:36:27;4.80;;;2.28;;
17631;SDS011;8934;51.194;17.150;2023-02-01T13:39:34;7.25;;;3.08;;
17631;SDS011;8934;51.194;17.150;2023-02-01T13:42:35;11.90;;;3.08;;
17631;SDS011;8934;51.194;17.150;2023-02-01T13:45:34;3.13;;;1.98;;
17631;SDS011;8934;51.194;17.150;2023-02-01T13:51:28;3.75;;;2.08;;
17631;SDS011;8934;51.194;17.150;2023-02-01T13:54:26;5.43;;;2.17;;
17631;SDS011;8934;51.194;17.150;2023-02-01T13:57:31;4.85;;;2.92;;
17631;SDS011;8934;51.194;17.150;2023-02-01T14:00:24;4.88;;;2.22;;
17631;SDS011;8934;51.194;17.150;2023-02-01T14:03:18;2.40;;;1.90;;
17631;SDS011;8934;51.194;17.150;2023-02-01T14:06:18;4.07;;;2.13;;
17631;SDS011;8934;51.194;17.150;2023-02-01T14:09:32;6.30;;;2.88;;
17631;SDS011;8934;51.194;17.150;2023-02-01T14:15:33;3.58;;;1.98;;
17631;SDS011;8934;51.194;17.150;2023-02-01T14:21:47;6.60;;;1.98;;
17631;SDS011;8934;51.194;17.150;2023-02-01T14:24:39;7.43;;;1.90;;
17631;SDS011;8934;51.194;17.150;2023-02-01T14:27:37;5.10;;;2.05;;
17631;SDS011;8934;51.194;17.150;2023-02-01T14:30:25;4.93;;;2.58;;
17631;SDS011;8934;51.194;17.150;2023-02-01T14:33:17;8.20;;;1.77;;
17631;SDS011;8934;51.194;17.150;2023-02-01T14:36:10;5.75;;;1.70;;
17631;SDS011;8934;51.194;17.150;2023-02-01T14:39:00;5.97;;;1.55;;
17631;SDS011;8934;51.194;17.150;2023-02-01T14:41:48;2.58;;;1.30;;
17631;SDS011;8934;51.194;17.150;2023-02-01T14:44:47;4.57;;;1.58;;
17631;SDS011;8934;51.194;17.150;2023-02-01T14:47:44;2.83;;;1.65;;
17631;SDS011;8934;51.194;17.150;2023-02-01T14:50:34;3.33;;;1.67;;
17631;SDS011;8934;51.194;17.150;2023-02-01T14:53:28;3.40;;;1.70;;
17631;SDS011;8934;51.194;17.150;2023-02-01T14:56:20;4.40;;;2.22;;
17631;SDS011;8934;51.194;17.150;2023-02-01T14:59:08;4.20;;;1.90;;
17631;SDS011;8934;51.194;17.150;2023-02-01T15:02:01;4.47;;;2.17;;
17631;SDS011;8934;51.194;17.150;2023-02-01T15:05:12;3.58;;;2.30;;
17631;SDS011;8934;51.194;17.150;2023-02-01T15:08:24;4.90;;;1.80;;
17631;SDS011;8934;51.194;17.150;2023-02-01T15:11:16;3.95;;;1.92;;
17631;SDS011;8934;51.194;17.150;2023-02-01T15:14:12;4.53;;;2.00;;
17631;SDS011;8934;51.194;17.150;2023-02-01T15:17:01;10.30;;;2.63;;
17631;SDS011;8934;51.194;17.150;2023-02-01T15:19:52;2.75;;;1.70;;
17631;SDS011;8934;51.194;17.150;2023-02-01T15:22:40;4.82;;;2.13;;
17631;SDS011;8934;51.194;17.150;2023-02-01T15:25:29;11.15;;;2.70;;
17631;SDS011;8934;51.194;17.150;2023-02-01T15:28:20;3.95;;;1.83;;
17631;SDS011;8934;51.194;17.150;2023-02-01T15:31:08;5.88;;;1.83;;
17631;SDS011;8934;51.194;17.150;2023-02-01T15:33:59;5.20;;;1.92;;
17631;SDS011;8934;51.194;17.150;2023-02-01T15:36:47;5.72;;;2.25;;
17631;SDS011;8934;51.194;17.150;2023-02-01T15:40:04;4.25;;;2.05;;
17631;SDS011;8934;51.194;17.150;2023-02-01T15:43:11;11.27;;;3.10;;
17631;SDS011;8934;51.194;17.150;2023-02-01T15:46:01;4.97;;;2.60;;
17631;SDS011;8934;51.194;17.150;2023-02-01T15:48:53;4.72;;;2.85;;
17631;SDS011;8934;51.194;17.150;2023-02-01T15:51:43;5.50;;;2.30;;
17631;SDS011;8934;51.194;17.150;2023-02-01T15:54:41;7.15;;;2.53;;
17631;SDS011;8934;51.194;17.150;2023-02-01T15:57:35;8.07;;;2.60;;
17631;SDS011;8934;51.194;17.150;2023-02-01T16:00:26;7.75;;;2.25;;
17631;SDS011;8934;51.194;17.150;2023-02-01T16:03:27;6.82;;;2.50;;
17631;SDS011;8934;51.194;17.150;2023-02-01T16:06:28;9.75;;;2.50;;
17631;SDS011;8934;51.194;17.150;2023-02-01T16:09:17;3.47;;;2.50;;
17631;SDS011;8934;51.194;17.150;2023-02-01T16:12:20;3.47;;;1.75;;
17631;SDS011;8934;51.194;17.150;2023-02-01T16:15:15;5.10;;;2.05;;
17631;SDS011;8934;51.194;17.150;2023-02-01T16:18:02;4.25;;;1.65;;
17631;SDS011;8934;51.194;17.150;2023-02-01T16:20:51;3.47;;;2.30;;
17631;SDS011;8934;51.194;17.150;2023-02-01T16:23:39;6.90;;;2.88;;
17631;SDS011;8934;51.194;17.150;2023-02-01T16:26:27;9.23;;;2.70;;
17631;SDS011;8934;51.194;17.150;2023-02-01T16:29:14;5.82;;;3.30;;
17631;SDS011;8934;51.194;17.150;2023-02-01T16:32:02;10.30;;;2.60;;
17631;SDS011;8934;51.194;17.150;2023-02-01T16:34:51;6.10;;;2.78;;
17631;SDS011;8934;51.194;17.150;2023-02-01T16:37:40;7.20;;;2.95;;
17631;SDS011;8934;51.194;17.150;2023-02-01T16:40:28;6.85;;;2.90;;
17631;SDS011;8934;51.194;17.150;2023-02-01T16:43:16;6.63;;;2.97;;
17631;SDS011;8934;51.194;17.150;2023-02-01T16:46:05;6.15;;;3.35;;
17631;SDS011;8934;51.194;17.150;2023-02-01T16:48:58;6.13;;;2.38;;
17631;SDS011;8934;51.194;17.150;2023-02-01T16:51:47;8.60;;;3.35;;
17631;SDS011;8934;51.194;17.150;2023-02-01T16:54:39;5.03;;;2.75;;
17631;SDS011;8934;51.194;17.150;2023-02-01T16:57:27;5.45;;;2.95;;
17631;SDS011;8934;51.194;17.150;2023-02-01T17:00:15;4.63;;;2.65;;
17631;SDS011;8934;51.194;17.150;2023-02-01T17:03:10;8.75;;;3.90;;
17631;SDS011;8934;51.194;17.150;2023-02-01T17:06:02;8.10;;;3.70;;
17631;SDS011;8934;51.194;17.150;2023-02-01T17:08:52;8.93;;;4.07;;
17631;SDS011;8934;51.194;17.150;2023-02-01T17:11:43;10.98;;;4.07;;
17631;SDS011;8934;51.194;17.150;2023-02-01T17:14:31;7.05;;;3.80;;
17631;SDS011;8934;51.194;17.150;2023-02-01T17:17:23;12.45;;;4.30;;
17631;SDS011;8934;51.194;17.150;2023-02-01T17:20:24;8.20;;;5.40;;
17631;SDS011;8934;51.194;17.150;2023-02-01T17:23:14;10.93;;;4.95;;
17631;SDS011;8934;51.194;17.150;2023-02-01T17:26:01;11.70;;;4.65;;
17631;SDS011;8934;51.194;17.150;2023-02-01T17:28:50;9.90;;;4.95;;
17631;SDS011;8934;51.194;17.150;2023-02-01T17:31:39;7.75;;;3.83;;
17631;SDS011;8934;51.194;17.150;2023-02-01T17:34:29;7.78;;;4.68;;
17631;SDS011;8934;51.194;17.150;2023-02-01T17:37:19;8.25;;;4.60;;
17631;SDS011;8934;51.194;17.150;2023-02-01T17:40:11;11.35;;;4.95;;
17631;SDS011;8934;51.194;17.150;2023-02-01T17:42:58;8.77;;;4.65;;
17631;SDS011;8934;51.194;17.150;2023-02-01T17:45:49;10.63;;;5.63;;
17631;SDS011;8934;51.194;17.150;2023-02-01T17:48:40;9.65;;;4.57;;
17631;SDS011;8934;51.194;17.150;2023-02-01T17:51:28;9.15;;;5.63;;